• Join FlightAware (Why Join?)
  • Login
  • US Flag 
03:32AM EST


 

Airport Tracker/Info


-or-


 

Live Flight TrackerFlight Track Log ✈ KAP46 ✈ 16-Aug-2013 ✈ KMSS - KALB

Flight Track Log - Related Links

Times and Time Zones

All times are in EDT time to prevent confusion due to time zone crossing. See the KAP46 flight status page for this flight to view local times or setup timezone preferences in your user account.

Time Position Orientation Groundspeed Altitude Reporting Facility
EDT Latitude Longitude Course Direction KTS MPH feet Rate Location/Type
01:18PM 44.6603 -74.7925 167° South 151 174 6,600  Level Boston Center
01:19PM 44.6214 -74.7647 153° Southeast 156 180 7,300 480 Climbing Boston Center
01:20PM 44.5758 -74.7483 166° South 161 185 7,600 120 Climbing Boston Center
01:21PM 44.5303 -74.7261 161° South 166 191 7,600 -60 Level Boston Center
01:22PM 44.4808 -74.7008 160° South 177 204 7,500 -60 Descending Boston Center
01:23PM 44.7867 -74.7622 167° South  Level FlightAware Approximate
01:23PM 44.4356 -74.6789 161° South 182 209 7,500  Level Boston Center
01:24PM 44.7615 -74.7538 167° South  Level FlightAware Approximate
01:24PM 44.3922 -74.6539 158° South 182 209 7,600  Level Boston Center
01:25PM 44.3489 -74.6292 158° South 177 204 7,600  Level Boston Center
01:26PM 44.3056 -74.6014 155° Southeast 172 198 7,600 -60 Level Boston Center
01:27PM 44.2561 -74.5792 162° South 172 198 7,500  Descending Boston Center
01:28PM 44.2083 -74.5717 174° South 177 204 7,600  Climbing Boston Center
01:29PM 44.1606 -74.5583 169° South 177 204 7,600 120 Level Boston Center
01:30PM 44.1067 -74.5392 166° South 177 204 7,900  Climbing Boston Center
01:31PM 44.0633 -74.5203 163° South 177 204 7,600 -660 Descending Boston Center
01:32PM 44.0097 -74.4925 160° South 184 212 6,600 -720 Descending Boston Center
01:33PM 43.9644 -74.4564 150° Southeast 190 219 6,300 -420 Descending Boston Center
01:34PM 43.9150 -74.4231 154° Southeast 190 219 5,800 -360 Descending Boston Center
01:35PM 43.8717 -74.3928 153° Southeast 190 219 5,600 -180 Descending Boston Center
01:36PM 43.8286 -74.3567 149° Southeast 190 219 5,500 -60 Descending Boston Center
01:37PM 43.7833 -74.3267 154° Southeast 184 212 5,500  Level Boston Center
01:38PM 43.7397 -74.3050 160° South 177 204 5,600  Climbing Boston Center
01:39PM 43.6964 -74.2864 163° South 171 197 5,500 -60 Descending Boston Center
01:40PM 43.6528 -74.2681 163° South 166 191 5,500  Level Boston Center
01:41PM 43.6094 -74.2522 165° South 161 185 5,600 60 Climbing Boston Center
01:42PM 43.5639 -74.2339 164° South 161 185 5,700 -60 Climbing Boston Center
01:43PM 43.5183 -74.2094 159° South 167 192 5,500 -120 Descending Boston Center
01:44PM 43.4772 -74.1825 155° Southeast 167 192 5,500  Level Boston Center
01:45PM 43.4317 -74.1528 155° Southeast 172 198 5,500  Level Boston Center
01:46PM 43.3944 -74.1289 155° Southeast 172 198 5,500  Level Boston Center
01:47PM 43.3633 -74.1192 167° South 168 193 5,500 60 Level Boston Center
01:47PM 43.3428 -74.1044 152° Southeast 172 198 5,600  Climbing Boston Center
01:48PM 43.3056 -74.0864 161° South 166 191 5,500  Descending Boston Center
01:49PM 43.2764 -74.0742 163° South 170 196 5,600  Climbing Boston Center
01:49PM 43.2539 -74.0622 159° South 166 191 5,500 -120 Descending Boston Center
01:50PM 43.2167 -74.0411 158° South 166 191 5,500  Level Boston Center
01:51PM 43.1669 -74.0142 158° South 166 191 5,600  Climbing Boston Center
01:52PM 43.1275 -73.9961 162° South 166 191 5,600 -180 Level Boston Center
01:53PM 43.0944 -73.9811 162° South 170 196 5,400 -480 Descending Boston Center
01:54PM 43.0633 -73.9661 161° South 180 207 5,000 -480 Descending Boston Center
01:54PM 43.0322 -73.9539 164° South 178 205 4,800 -360 Descending Boston Center
01:55PM 42.9764 -73.9328 165° South 186 214 4,400 -480 Descending Boston Center
01:56PM 42.9514 -73.9236 165° South 184 212 4,100 -360 Descending Boston Center
01:57PM 42.9347 -73.9147 159° South 186 214 4,000 -360 Descending Boston Center
01:58PM 42.8747 -73.8906 164° South 181 208 3,500 -360 Descending Boston Center
01:59PM 42.8228 -73.8753 168° South 181 208 3,300 -660 Descending Boston Center
02:00PM 42.7583 -73.8653 174° South 182 209 2,100 -780 Descending Boston Center
02:01PM 42.7064 -73.8472 166° South 172 198 1,500 -600 Descending Boston Center
02:02PM 42.7131 -73.8050 78° East 127 146 800 -660 Descending Boston Center
02:04PM 42.7333 -73.8000 170° South  Level FlightAware Approximate
02:11PM 42.7491 -73.8020 170° South  Level Estimated
02:12PM 42.7491 -73.8020 170° South  Level Estimated
02:13PM 42.7491 -73.8020 170° South  Level Estimated
02:14PM 42.7491 -73.8020 170° South  Level Estimated